createdAt,value
2023-01-09T00:00:57.585Z,39.07
2023-01-09T00:03:26.084Z,42.80
2023-01-09T00:05:54.724Z,55.17
2023-01-09T00:08:23.309Z,43.27
2023-01-09T00:10:52.226Z,41.37
2023-01-09T00:13:22.088Z,44.63
2023-01-09T00:15:50.527Z,49.03
2023-01-09T00:18:19.043Z,49.60
2023-01-09T00:20:47.511Z,35.57
2023-01-09T00:23:15.942Z,33.97
2023-01-09T00:25:44.452Z,41.13
2023-01-09T00:28:12.896Z,42.23
2023-01-09T00:30:42.773Z,41.50
2023-01-09T00:33:11.399Z,47.57
2023-01-09T00:35:39.876Z,29.77
2023-01-09T00:38:08.310Z,43.00
2023-01-09T00:40:36.814Z,46.60
2023-01-09T00:43:05.283Z,43.67
2023-01-09T00:45:33.790Z,39.93
2023-01-09T00:48:05.579Z,43.03
2023-01-09T00:50:35.142Z,44.27
2023-01-09T00:53:08.333Z,48.33
2023-01-09T00:55:37.085Z,40.40
2023-01-09T00:58:05.711Z,42.67
2023-01-09T01:00:34.246Z,49.67
2023-01-09T01:03:04.482Z,40.70
2023-01-09T01:05:50.421Z,38.17
2023-01-09T01:08:19.449Z,47.13
2023-01-09T01:10:48.704Z,40.13
2023-01-09T01:13:17.282Z,60.43
2023-01-09T01:15:46.476Z,51.27
2023-01-09T01:18:16.703Z,43.07
2023-01-09T01:20:46.296Z,50.07
2023-01-09T01:23:14.751Z,64.10
2023-01-09T01:25:43.848Z,48.23
2023-01-09T01:28:12.757Z,46.60
2023-01-09T01:30:41.923Z,58.37
2023-01-09T01:33:10.802Z,57.70
2023-01-09T01:35:40.670Z,59.43
2023-01-09T01:38:09.127Z,47.77
2023-01-09T01:40:38.308Z,46.90
2023-01-09T01:43:06.834Z,49.67
2023-01-09T01:45:36.010Z,47.73
2023-01-09T01:48:06.018Z,43.93
2023-01-09T01:50:36.716Z,64.40
2023-01-09T01:53:09.228Z,46.20
2023-01-09T01:55:40.759Z,50.90
2023-01-09T01:58:10.737Z,43.50
2023-01-09T02:00:40.716Z,61.33
2023-01-09T02:03:09.625Z,52.77
2023-01-09T02:05:39.122Z,49.17
2023-01-09T02:08:10.052Z,45.27
2023-01-09T02:10:39.555Z,61.83
2023-01-09T02:13:08.354Z,58.87
2023-01-09T02:15:40.897Z,63.13
2023-01-09T02:18:16.498Z,67.03
2023-01-09T02:20:54.392Z,72.93
2023-01-09T02:23:35.523Z,65.73
2023-01-09T02:26:18.503Z,69.53
2023-01-09T02:28:54.935Z,60.87
2023-01-09T02:31:30.246Z,68.70
2023-01-09T02:34:02.321Z,59.70
2023-01-09T02:36:32.332Z,63.67
2023-01-09T02:39:15.928Z,54.30
2023-01-09T02:41:47.449Z,61.40
2023-01-09T02:44:26.088Z,64.47
2023-01-09T02:47:06.543Z,49.77
2023-01-09T02:49:35.988Z,53.97
2023-01-09T02:52:11.557Z,48.63
2023-01-09T02:54:47.138Z,65.53
2023-01-09T02:57:21.531Z,60.33
2023-01-09T02:59:57.751Z,51.23
2023-01-09T03:02:37.501Z,37.73
2023-01-09T03:05:09.174Z,54.20
2023-01-09T03:07:40.268Z,37.17
2023-01-09T03:10:12.324Z,46.03
2023-01-09T03:12:42.183Z,53.30
2023-01-09T03:15:12.744Z,52.57
2023-01-09T03:17:44.356Z,46.93
2023-01-09T03:20:14.305Z,34.47
2023-01-09T03:22:47.535Z,53.03
2023-01-09T03:25:18.444Z,45.83
2023-01-09T03:27:46.888Z,50.23
2023-01-09T03:30:15.539Z,34.87
2023-01-09T03:32:45.389Z,29.03
2023-01-09T03:35:13.815Z,40.90
2023-01-09T03:37:42.282Z,33.13
2023-01-09T03:40:11.420Z,28.63
2023-01-09T03:42:40.124Z,33.17
2023-01-09T03:45:09.308Z,60.20
2023-01-09T03:47:38.093Z,48.80
2023-01-09T03:50:08.990Z,43.83
2023-01-09T03:52:37.501Z,52.00
2023-01-09T03:55:06.293Z,42.00
2023-01-09T03:57:34.778Z,43.90
2023-01-09T04:00:03.269Z,46.50
2023-01-09T04:02:31.756Z,30.50
2023-01-09T04:05:00.222Z,37.87
2023-01-09T04:07:30.099Z,38.20
2023-01-09T04:09:58.529Z,25.60
2023-01-09T04:12:26.961Z,34.63
2023-01-09T04:14:55.696Z,30.07
2023-01-09T04:17:24.168Z,32.37
2023-01-09T04:19:52.629Z,39.23
2023-01-09T04:22:21.132Z,37.33
2023-01-09T04:24:51.005Z,33.43
2023-01-09T04:27:19.461Z,39.37
2023-01-09T04:29:47.919Z,33.47
2023-01-09T04:32:16.364Z,33.20
2023-01-09T04:34:44.851Z,36.90
2023-01-09T04:37:13.390Z,31.53
2023-01-09T04:39:44.454Z,37.93
2023-01-09T04:42:14.416Z,33.37
2023-01-09T04:44:42.888Z,30.70
2023-01-09T04:47:13.607Z,34.57
2023-01-09T04:49:42.221Z,33.00
2023-01-09T04:52:10.671Z,23.13
2023-01-09T04:54:39.599Z,27.63
2023-01-09T04:57:08.135Z,27.57
2023-01-09T04:59:37.980Z,29.10
2023-01-09T05:02:06.515Z,25.50
2023-01-09T05:04:35.066Z,30.00
2023-01-09T05:07:03.660Z,22.70
2023-01-09T05:09:32.089Z,30.37
2023-01-09T05:12:01.791Z,31.20
2023-01-09T05:14:30.619Z,22.80
2023-01-09T05:17:00.484Z,31.07
2023-01-09T05:19:29.275Z,28.27
2023-01-09T05:21:57.772Z,24.87
2023-01-09T05:24:26.196Z,35.07
2023-01-09T05:26:54.688Z,34.63
2023-01-09T05:29:23.204Z,25.50
2023-01-09T05:31:52.855Z,28.33
2023-01-09T05:34:22.866Z,19.73
2023-01-09T05:36:51.317Z,23.87
2023-01-09T05:39:19.764Z,22.50
2023-01-09T05:41:48.296Z,24.67
2023-01-09T05:44:16.761Z,32.87
2023-01-09T05:46:45.459Z,34.60
2023-01-09T05:49:14.094Z,28.93
2023-01-09T05:51:43.971Z,33.77
2023-01-09T05:54:13.617Z,35.97
2023-01-09T05:56:42.766Z,31.80
2023-01-09T05:59:11.203Z,40.23
2023-01-09T06:01:39.647Z,33.20
2023-01-09T06:04:08.144Z,31.97
2023-01-09T06:06:36.655Z,26.90
2023-01-09T06:09:06.513Z,29.77
2023-01-09T06:11:35.920Z,29.20
2023-01-09T06:14:04.418Z,30.33
2023-01-09T06:16:32.891Z,28.23
2023-01-09T06:19:01.385Z,25.80
2023-01-09T06:21:30.072Z,25.03
2023-01-09T06:23:58.511Z,25.03
2023-01-09T06:26:28.866Z,23.13
2023-01-09T06:28:57.424Z,17.63
2023-01-09T06:31:26.461Z,14.73
2023-01-09T06:33:54.956Z,13.30
2023-01-09T06:36:23.397Z,14.23
2023-01-09T06:38:51.832Z,11.17
2023-01-09T06:41:20.316Z,15.13
2023-01-09T06:43:50.253Z,11.73
2023-01-09T06:46:18.972Z,10.00
2023-01-09T06:48:47.464Z,11.00
2023-01-09T06:51:15.889Z,11.73
2023-01-09T06:53:44.301Z,11.87
2023-01-09T06:56:12.782Z,9.93
2023-01-09T06:58:41.186Z,11.07
2023-01-09T07:01:11.229Z,12.13
2023-01-09T07:03:39.796Z,11.57
2023-01-09T07:06:08.581Z,8.77
2023-01-09T07:08:37.068Z,9.73
2023-01-09T07:11:05.542Z,9.77
2023-01-09T07:13:34.035Z,18.07
2023-01-09T07:16:03.399Z,16.00
2023-01-09T07:18:33.355Z,18.90
2023-01-09T07:21:01.879Z,18.90
2023-01-09T07:23:30.350Z,16.00
2023-01-09T07:25:59.486Z,17.10
2023-01-09T07:28:28.003Z,17.77
2023-01-09T07:30:56.534Z,16.07
2023-01-09T07:33:25.360Z,17.80
2023-01-09T07:35:55.178Z,13.90
2023-01-09T07:38:23.637Z,17.13
2023-01-09T07:40:52.145Z,13.03
2023-01-09T07:43:20.830Z,13.20
2023-01-09T07:45:49.251Z,10.83
2023-01-09T07:48:17.723Z,11.17
2023-01-09T07:50:46.276Z,10.80
2023-01-09T07:53:16.178Z,11.67
2023-01-09T07:55:44.997Z,11.17
2023-01-09T07:58:13.461Z,13.37
2023-01-09T08:00:41.931Z,9.57
2023-01-09T08:03:10.514Z,11.17
2023-01-09T08:05:38.994Z,11.87
2023-01-09T08:08:07.825Z,10.33
2023-01-09T08:10:37.813Z,9.57
2023-01-09T08:13:06.266Z,10.50
2023-01-09T08:15:34.753Z,11.43
2023-01-09T08:18:03.317Z,13.20
2023-01-09T08:20:33.048Z,11.60
2023-01-09T08:23:01.590Z,12.60
2023-01-09T08:25:30.101Z,15.47
2023-01-09T08:28:00.029Z,16.37
2023-01-09T08:30:28.516Z,20.57
2023-01-09T08:32:56.987Z,19.67
2023-01-09T08:35:25.478Z,24.00
2023-01-09T08:37:54.108Z,23.00
2023-01-09T08:40:22.870Z,30.57
2023-01-09T08:43:08.941Z,25.77
2023-01-09T08:45:56.678Z,25.77
2023-01-09T08:48:25.260Z,20.83
2023-01-09T08:50:54.392Z,24.77
2023-01-09T08:53:23.015Z,23.83
2023-01-09T08:55:51.479Z,21.50
2023-01-09T08:58:19.949Z,19.40
2023-01-09T09:00:49.840Z,18.97
2023-01-09T09:03:18.622Z,21.80
2023-01-09T09:05:47.080Z,18.07
2023-01-09T09:08:15.860Z,17.27
2023-01-09T09:10:44.370Z,16.03
2023-01-09T09:13:12.827Z,15.77
2023-01-09T09:15:41.316Z,13.80
2023-01-09T09:18:11.403Z,16.40
2023-01-09T09:20:40.745Z,18.43
2023-01-09T09:23:09.382Z,16.07
2023-01-09T09:25:39.458Z,14.63
2023-01-09T09:28:08.598Z,12.70
2023-01-09T09:30:37.126Z,13.73
2023-01-09T09:33:05.995Z,14.23
2023-01-09T09:35:36.021Z,18.67
2023-01-09T09:38:05.929Z,14.93
2023-01-09T09:40:42.301Z,15.03
2023-01-09T09:43:43.881Z,12.57
2023-01-09T09:46:17.407Z,14.20
2023-01-09T09:48:50.416Z,20.33
2023-01-09T09:51:32.471Z,17.07
2023-01-09T09:54:02.608Z,17.07
2023-01-09T09:56:33.656Z,15.23
2023-01-09T09:59:03.830Z,17.97
2023-01-09T10:01:37.775Z,26.87
2023-01-09T10:04:08.493Z,48.17
2023-01-09T10:06:41.563Z,38.50
2023-01-09T10:09:14.167Z,35.20
2023-01-09T10:11:46.500Z,35.50
2023-01-09T10:14:23.679Z,36.73
2023-01-09T10:17:03.457Z,38.73
2023-01-09T10:19:38.145Z,36.30
2023-01-09T10:22:12.156Z,26.63
2023-01-09T10:24:46.215Z,26.03
2023-01-09T10:27:19.035Z,24.87
2023-01-09T10:29:59.468Z,23.33
2023-01-09T10:32:36.185Z,31.33
2023-01-09T10:35:19.630Z,22.40
2023-01-09T10:37:53.255Z,18.83
2023-01-09T10:40:25.027Z,16.10
2023-01-09T10:42:55.000Z,17.50
2023-01-09T10:45:26.413Z,18.30
2023-01-09T10:47:56.638Z,21.90
2023-01-09T10:50:26.578Z,21.87
2023-01-09T10:52:57.373Z,16.03
2023-01-09T10:55:32.268Z,14.50
2023-01-09T10:58:01.651Z,17.07
2023-01-09T11:00:30.474Z,15.60
2023-01-09T11:02:58.976Z,49.70
2023-01-09T11:05:29.183Z,35.37
2023-01-09T11:08:01.315Z,33.93
2023-01-09T11:10:46.273Z,29.60
2023-01-09T11:13:15.693Z,27.87
2023-01-09T11:15:44.209Z,27.03
2023-01-09T11:18:20.085Z,39.43
2023-01-09T11:20:48.548Z,35.03
2023-01-09T11:23:28.864Z,27.50
2023-01-09T11:25:58.135Z,34.73
2023-01-09T11:28:26.710Z,34.97
2023-01-09T11:30:56.289Z,37.17
2023-01-09T11:33:26.059Z,48.87
2023-01-09T11:35:59.899Z,37.23
2023-01-09T11:38:29.904Z,43.40
2023-01-09T11:40:59.446Z,31.33
2023-01-09T11:43:33.220Z,35.27
2023-01-09T11:46:02.745Z,39.60
2023-01-09T11:48:36.034Z,44.00
2023-01-09T11:51:05.629Z,37.53
2023-01-09T11:53:47.563Z,39.17
2023-01-09T11:56:16.572Z,38.37
2023-01-09T11:58:45.020Z,42.57
2023-01-09T12:01:19.973Z,58.13
2023-01-09T12:03:55.501Z,53.33
2023-01-09T12:06:28.252Z,52.33
2023-01-09T12:09:00.919Z,43.33
2023-01-09T12:11:32.283Z,51.03
2023-01-09T12:14:07.635Z,65.40
2023-01-09T12:16:40.102Z,40.13
2023-01-09T12:19:17.562Z,45.13
2023-01-09T12:21:49.199Z,43.53
2023-01-09T12:24:33.373Z,68.57
2023-01-09T12:27:06.293Z,69.60
2023-01-09T12:29:47.251Z,67.90
2023-01-09T12:32:21.805Z,51.50
2023-01-09T12:34:54.773Z,57.63
2023-01-09T12:37:39.481Z,48.33
2023-01-09T12:40:19.014Z,33.23
2023-01-09T12:42:52.952Z,31.73
2023-01-09T12:45:30.377Z,25.53
2023-01-09T12:48:02.720Z,26.37
2023-01-09T12:50:58.391Z,58.57
2023-01-09T12:53:27.888Z,35.00
2023-01-09T12:56:01.949Z,30.43
2023-01-09T12:58:36.555Z,28.80
2023-01-09T13:01:07.397Z,52.43
2023-01-09T13:03:38.423Z,40.67
2023-01-09T13:06:08.966Z,34.53
2023-01-09T13:08:38.787Z,37.43
2023-01-09T13:11:19.836Z,35.97
2023-01-09T13:13:51.794Z,39.97
2023-01-09T13:16:23.090Z,51.37
2023-01-09T13:18:54.607Z,52.53
2023-01-09T13:21:23.193Z,52.20
2023-01-09T13:23:54.265Z,51.97
2023-01-09T13:26:26.306Z,62.03
2023-01-09T13:29:00.592Z,61.00
2023-01-09T13:31:56.416Z,46.23
2023-01-09T13:34:25.978Z,40.80
2023-01-09T13:36:55.703Z,62.73
2023-01-09T13:39:25.401Z,47.57
2023-01-09T13:42:17.476Z,36.53
2023-01-09T13:44:46.563Z,35.87
2023-01-09T13:47:19.505Z,42.60
2023-01-09T13:50:09.165Z,38.00
2023-01-09T13:52:38.530Z,33.00
2023-01-09T13:55:25.245Z,72.43
2023-01-09T13:58:15.068Z,43.13
2023-01-09T14:00:52.805Z,33.80
2023-01-09T14:03:23.509Z,46.10
2023-01-09T14:06:06.010Z,42.67
2023-01-09T14:08:35.161Z,32.87
2023-01-09T14:11:05.271Z,30.83
2023-01-09T14:13:35.568Z,40.43
2023-01-09T14:16:07.099Z,39.13
2023-01-09T14:18:36.680Z,30.17
2023-01-09T14:23:52.284Z,38.03
2023-01-09T14:26:23.097Z,35.60
2023-01-09T14:28:51.673Z,33.87
2023-01-09T14:31:31.544Z,39.00
2023-01-09T14:34:24.062Z,41.07
2023-01-09T14:36:59.863Z,45.37
2023-01-09T14:39:28.972Z,43.70
2023-01-09T14:42:00.680Z,42.13
2023-01-09T14:44:30.683Z,49.77
2023-01-09T14:47:04.441Z,48.67
2023-01-09T14:49:35.328Z,46.30
2023-01-09T14:52:04.998Z,49.63
2023-01-09T14:54:35.035Z,45.00
2023-01-09T14:57:03.618Z,42.13
2023-01-09T14:59:32.091Z,39.70
2023-01-09T15:02:02.031Z,39.00
2023-01-09T15:04:34.987Z,38.57
2023-01-09T15:07:03.734Z,35.00
2023-01-09T15:09:34.683Z,37.13
2023-01-09T15:12:06.177Z,37.47
2023-01-09T15:14:36.020Z,30.50
2023-01-09T15:17:06.040Z,29.53
2023-01-09T15:19:35.288Z,31.77
2023-01-09T15:22:05.267Z,30.60
2023-01-09T15:24:34.857Z,25.17
2023-01-09T15:27:04.761Z,25.80
2023-01-09T15:29:33.242Z,33.60
2023-01-09T15:32:03.923Z,30.53
2023-01-09T15:34:34.183Z,29.80
2023-01-09T15:37:03.591Z,22.20
2023-01-09T15:39:34.536Z,32.87
2023-01-09T15:42:20.561Z,30.67
2023-01-09T15:44:50.685Z,25.83
2023-01-09T15:47:22.137Z,28.33
2023-01-09T15:49:52.323Z,30.53
2023-01-09T15:52:21.176Z,31.33
2023-01-09T15:54:49.740Z,25.77
2023-01-09T15:57:36.744Z,31.30
2023-01-09T16:00:23.894Z,27.63
2023-01-09T16:03:10.467Z,21.83
2023-01-09T16:05:43.117Z,21.67
2023-01-09T16:08:32.447Z,25.30
2023-01-09T16:11:03.638Z,14.10
2023-01-09T16:13:33.381Z,7.77
2023-01-09T16:16:02.657Z,3.07
2023-01-09T16:18:32.835Z,3.10
2023-01-09T16:21:06.942Z,1.50
2023-01-09T16:23:37.001Z,1.10
2023-01-09T16:26:07.078Z,1.40
2023-01-09T16:28:35.509Z,1.40
2023-01-09T16:31:07.282Z,1.47
2023-01-09T16:33:35.781Z,1.60
2023-01-09T16:36:05.876Z,1.60
2023-01-09T16:38:35.773Z,1.50
2023-01-09T16:41:22.812Z,1.63
2023-01-09T16:43:52.041Z,1.57
2023-01-09T16:46:21.632Z,1.50
2023-01-09T16:48:50.173Z,1.40
2023-01-09T16:51:19.488Z,1.40
2023-01-09T16:53:49.673Z,1.43
2023-01-09T16:56:19.923Z,1.10
2023-01-09T16:58:48.880Z,1.20
2023-01-09T17:01:18.233Z,1.20
2023-01-09T17:03:47.859Z,1.30
2023-01-09T17:06:18.146Z,2.23
2023-01-09T17:08:47.024Z,1.30
2023-01-09T17:11:21.252Z,1.10
2023-01-09T17:13:49.739Z,1.30
2023-01-09T17:16:19.577Z,2.07
2023-01-09T17:18:48.080Z,1.20
2023-01-09T17:21:17.842Z,1.13
2023-01-09T17:23:46.552Z,1.20
2023-01-09T17:26:36.508Z,1.30
2023-01-09T17:29:06.567Z,1.30
2023-01-09T17:31:36.873Z,1.10
2023-01-09T17:34:06.448Z,1.20
2023-01-09T17:36:35.496Z,1.10
2023-01-09T17:39:04.055Z,1.00
2023-01-09T17:41:33.552Z,1.20
2023-01-09T17:44:02.039Z,1.20
2023-01-09T17:46:33.365Z,1.10
2023-01-09T17:49:02.222Z,1.10
2023-01-09T17:51:30.882Z,1.23
2023-01-09T17:53:59.386Z,1.00
2023-01-09T17:56:28.711Z,1.23
2023-01-09T17:58:57.187Z,1.40
2023-01-09T18:01:25.695Z,1.27
2023-01-09T18:03:55.691Z,1.07
2023-01-09T18:06:25.054Z,1.10
2023-01-09T18:08:53.551Z,1.17
2023-01-09T18:11:22.919Z,1.33
2023-01-09T18:13:53.604Z,1.20
2023-01-09T18:16:23.983Z,1.00
2023-01-09T18:18:52.693Z,1.20
2023-01-09T18:21:23.328Z,1.03
2023-01-09T18:23:52.027Z,1.27
2023-01-09T18:26:21.583Z,1.30
2023-01-09T18:28:50.757Z,1.30
2023-01-09T18:31:22.817Z,1.03
2023-01-09T18:33:52.945Z,1.20
2023-01-09T18:36:23.907Z,1.20
2023-01-09T18:38:53.456Z,1.20
2023-01-09T18:41:22.536Z,1.30
2023-01-09T18:43:51.184Z,1.20
2023-01-09T18:46:24.007Z,1.10
2023-01-09T18:48:53.502Z,1.10
2023-01-09T18:51:23.672Z,1.20
2023-01-09T18:53:52.525Z,1.10
2023-01-09T18:56:21.336Z,1.23
2023-01-09T18:58:50.247Z,1.00
2023-01-09T19:01:19.580Z,1.20
2023-01-09T19:03:48.115Z,1.13
2023-01-09T19:06:16.563Z,1.10
2023-01-09T19:08:46.435Z,1.20
2023-01-09T19:11:14.962Z,1.23
2023-01-09T19:13:43.436Z,1.00
2023-01-09T19:16:12.353Z,1.00
2023-01-09T19:18:41.685Z,1.10
2023-01-09T19:21:14.292Z,1.10
2023-01-09T19:23:43.879Z,1.10
2023-01-09T19:26:17.497Z,1.10
2023-01-09T19:28:46.741Z,1.00
2023-01-09T19:31:15.466Z,1.00
2023-01-09T19:33:44.234Z,1.10
2023-01-09T19:36:12.750Z,1.03
2023-01-09T19:38:41.231Z,1.10
2023-01-09T19:41:13.073Z,1.00
2023-01-09T19:43:43.161Z,1.10
2023-01-09T19:46:12.752Z,1.00
2023-01-09T19:48:42.640Z,1.10
2023-01-09T19:51:11.792Z,1.07
2023-01-09T19:53:40.438Z,1.00
2023-01-09T19:56:10.049Z,1.00
2023-01-09T19:58:38.655Z,1.17
2023-01-09T20:01:12.621Z,0.93
2023-01-09T20:03:41.560Z,1.10
2023-01-09T20:06:14.009Z,1.10
2023-01-09T20:08:42.775Z,1.30
2023-01-09T20:11:11.310Z,1.10
2023-01-09T20:13:39.787Z,1.13
2023-01-09T20:16:08.958Z,1.00
2023-01-09T20:18:38.894Z,1.03
2023-01-09T20:21:07.679Z,1.20
2023-01-09T20:23:37.821Z,1.10
2023-01-09T20:26:06.457Z,1.37
2023-01-09T20:28:34.931Z,1.00
2023-01-09T20:31:05.842Z,1.00
2023-01-09T20:33:35.085Z,1.13
2023-01-09T20:36:05.112Z,1.00
2023-01-09T20:38:33.983Z,1.00
2023-01-09T20:41:08.507Z,1.00
2023-01-09T20:43:37.732Z,1.20
2023-01-09T20:46:06.807Z,1.00
2023-01-09T20:48:35.320Z,1.10
2023-01-09T20:51:09.528Z,1.20
2023-01-09T20:53:37.983Z,1.27
2023-01-09T20:56:07.822Z,1.27
2023-01-09T20:58:36.443Z,2.47
2023-01-09T21:01:08.529Z,1.73
2023-01-09T21:03:37.246Z,1.20
2023-01-09T21:06:07.011Z,1.70
2023-01-09T21:08:37.174Z,1.00
2023-01-09T21:11:06.721Z,1.10
2023-01-09T21:13:35.181Z,1.03
2023-01-09T21:16:03.821Z,1.10
2023-01-09T21:18:32.333Z,1.40
2023-01-09T21:21:03.992Z,1.37
2023-01-09T21:23:32.483Z,1.13
2023-01-09T21:26:02.704Z,1.10
2023-01-09T21:28:31.789Z,1.20
2023-01-09T21:31:00.279Z,1.20
2023-01-09T21:33:28.905Z,1.27
2023-01-09T21:35:57.846Z,1.40
2023-01-09T21:38:26.887Z,1.93
2023-01-09T21:40:55.866Z,1.40
2023-01-09T21:43:45.499Z,1.40
2023-01-09T21:46:28.461Z,1.40
2023-01-09T21:48:56.999Z,1.10
2023-01-09T21:51:25.628Z,0.93
2023-01-09T21:53:54.111Z,1.43
2023-01-09T21:56:22.796Z,1.47
2023-01-09T21:58:52.688Z,1.10
2023-01-09T22:01:21.231Z,1.37
2023-01-09T22:03:49.709Z,1.43
2023-01-09T22:06:18.184Z,1.10
2023-01-09T22:08:46.649Z,1.40
2023-01-09T22:11:16.192Z,1.73
2023-01-09T22:13:48.318Z,1.30
2023-01-09T22:16:18.562Z,1.10
2023-01-09T22:18:47.065Z,1.00
2023-01-09T22:21:17.580Z,1.00
2023-01-09T22:23:45.999Z,2.13
2023-01-09T22:26:15.377Z,1.27
2023-01-09T22:28:44.134Z,1.10
2023-01-09T22:31:13.122Z,1.10
2023-01-09T22:33:43.051Z,1.40
2023-01-09T22:36:12.776Z,1.07
2023-01-09T22:38:41.212Z,1.20
2023-01-09T22:41:09.660Z,1.53
2023-01-09T22:43:38.175Z,1.50
2023-01-09T22:46:11.043Z,1.30
2023-01-09T22:48:40.046Z,1.87
2023-01-09T22:51:12.010Z,1.60
2023-01-09T22:53:40.688Z,1.70
2023-01-09T22:56:09.985Z,1.67
2023-01-09T22:58:38.568Z,2.10
2023-01-09T23:01:07.563Z,2.30
2023-01-09T23:03:36.254Z,2.33
2023-01-09T23:06:04.997Z,3.33
2023-01-09T23:08:35.421Z,3.30
2023-01-09T23:11:04.604Z,2.57
2023-01-09T23:13:33.050Z,3.60
2023-01-09T23:16:02.196Z,4.33
2023-01-09T23:18:30.834Z,3.40
2023-01-09T23:21:00.567Z,3.63
2023-01-09T23:23:29.785Z,4.60
2023-01-09T23:26:00.502Z,3.60
2023-01-09T23:28:30.520Z,4.03
2023-01-09T23:30:59.337Z,4.60
2023-01-09T23:33:27.770Z,4.30
2023-01-09T23:35:56.331Z,3.97
2023-01-09T23:38:24.964Z,4.80
2023-01-09T23:40:58.050Z,4.47
2023-01-09T23:43:26.887Z,4.70
2023-01-09T23:45:55.417Z,5.00
2023-01-09T23:48:23.931Z,4.57
2023-01-09T23:50:53.239Z,5.37
2023-01-09T23:53:22.846Z,6.60
2023-01-09T23:55:51.561Z,6.40
2023-01-09T23:58:20.035Z,5.47
